createdAt,value
2023-04-12T00:00:12.019Z,96721.38
2023-04-12T00:02:15.016Z,96711.91
2023-04-12T00:04:18.168Z,96714.97
2023-04-12T00:06:32.274Z,96717.53
2023-04-12T00:08:35.569Z,96715.13
2023-04-12T00:10:38.490Z,96715.03
2023-04-12T00:12:41.787Z,96711.47
2023-04-12T00:14:44.547Z,96709.91
2023-04-12T00:16:47.073Z,96712.22
2023-04-12T00:18:49.703Z,96702.78
2023-04-12T00:20:53.195Z,96706.53
2023-04-12T00:22:57.571Z,96706.25
2023-04-12T00:25:00.262Z,96696.84
2023-04-12T00:27:02.936Z,96698.09
2023-04-12T00:29:05.498Z,96695.09
2023-04-12T00:31:08.596Z,96693.38
2023-04-12T00:33:11.214Z,96691.63
2023-04-12T00:35:14.381Z,96685.88
2023-04-12T00:37:16.949Z,96683.25
2023-04-12T00:39:20.933Z,96683.47
2023-04-12T00:41:24.149Z,96678.50
2023-04-12T00:43:27.777Z,96669.81
2023-04-12T00:45:30.338Z,96673.63
2023-04-12T00:47:32.949Z,96666.50
2023-04-12T00:49:35.960Z,96670.19
2023-04-12T00:51:39.353Z,96661.53
2023-04-12T00:53:42.132Z,96662.47
2023-04-12T00:55:46.847Z,96655.63
2023-04-12T00:57:49.391Z,96655.63
2023-04-12T00:59:52.165Z,96646.94
2023-04-12T01:01:56.890Z,96643.34
2023-04-12T01:04:01.474Z,96648.84
2023-04-12T01:06:14.805Z,96646.31
2023-04-12T01:08:24.999Z,96640.28
2023-04-12T01:10:40.850Z,96634.22
2023-04-12T01:12:53.301Z,96629.00
2023-04-12T01:15:05.926Z,96632.53
2023-04-12T01:17:14.121Z,96630.75
2023-04-12T01:19:30.950Z,96624.56
2023-04-12T01:21:46.088Z,96621.34
2023-04-12T01:24:13.982Z,96623.09
2023-04-12T01:26:34.383Z,96616.94
2023-04-12T01:28:42.194Z,96620.41
2023-04-12T01:30:47.562Z,96612.66
2023-04-12T01:32:53.314Z,96604.84
2023-04-12T01:34:58.503Z,96606.59
2023-04-12T01:37:04.009Z,96599.69
2023-04-12T01:39:08.372Z,96596.41
2023-04-12T01:41:11.222Z,96595.63
2023-04-12T01:43:15.903Z,96591.34
2023-04-12T01:45:19.942Z,96592.25
2023-04-12T01:47:22.587Z,96588.84
2023-04-12T01:49:33.683Z,96586.41
2023-04-12T01:51:46.077Z,96592.47
2023-04-12T01:53:52.038Z,96584.00
2023-04-12T01:56:00.693Z,96581.13
2023-04-12T01:58:04.182Z,96579.59
2023-04-12T02:00:10.685Z,96573.03
2023-04-12T02:02:15.041Z,96576.47
2023-04-12T02:04:19.152Z,96575.63
2023-04-12T02:06:22.345Z,96567.25
2023-04-12T02:08:25.454Z,96572.47
2023-04-12T02:10:31.053Z,96565.50
2023-04-12T02:12:33.607Z,96565.50
2023-04-12T02:14:36.801Z,96563.81
2023-04-12T02:16:39.414Z,96552.63
2023-04-12T02:18:43.729Z,96555.22
2023-04-12T02:20:46.558Z,96544.66
2023-04-12T02:22:50.522Z,96547.19
2023-04-12T02:24:54.179Z,96543.09
2023-04-12T02:26:56.792Z,96534.66
2023-04-12T02:28:59.322Z,96532.84
2023-04-12T02:31:01.909Z,96534.53
2023-04-12T02:33:06.182Z,96520.66
2023-04-12T02:35:10.938Z,96520.41
2023-04-12T02:37:14.650Z,96522.50
2023-04-12T02:39:19.212Z,96510.22
2023-04-12T02:41:22.884Z,96503.31
2023-04-12T02:43:25.461Z,96495.44
2023-04-12T02:45:28.359Z,96493.59
2023-04-12T02:47:30.969Z,96488.53
2023-04-12T02:49:33.674Z,96487.47
2023-04-12T02:51:38.507Z,96486.00
2023-04-12T02:53:41.286Z,96475.75
2023-04-12T02:55:44.668Z,96469.69
2023-04-12T02:57:47.578Z,96464.47
2023-04-12T02:59:53.000Z,96459.19
2023-04-12T03:01:56.034Z,96454.81
2023-04-12T03:03:59.013Z,96446.06
2023-04-12T03:06:01.961Z,96447.88
2023-04-12T03:08:06.332Z,96441.81
2023-04-12T03:10:11.969Z,96436.50
2023-04-12T03:12:15.585Z,96434.75
2023-04-12T03:14:18.313Z,96432.91
2023-04-12T03:16:23.443Z,96433.06
2023-04-12T03:18:26.465Z,96429.38
2023-04-12T03:20:29.488Z,96419.94
2023-04-12T03:22:32.087Z,96418.97
2023-04-12T03:24:37.194Z,96416.50
2023-04-12T03:26:41.603Z,96414.00
2023-04-12T03:28:45.845Z,96407.06
2023-04-12T03:30:48.433Z,96408.00
2023-04-12T03:32:51.130Z,96397.59
2023-04-12T03:34:53.746Z,96392.47
2023-04-12T03:36:56.484Z,96395.06
2023-04-12T03:38:59.083Z,96389.84
2023-04-12T03:41:02.978Z,96390.69
2023-04-12T03:43:05.643Z,96394.75
2023-04-12T03:45:09.074Z,96389.25
2023-04-12T03:47:12.033Z,96385.72
2023-04-12T03:49:14.604Z,96383.25
2023-04-12T03:51:17.239Z,96378.06
2023-04-12T03:53:19.766Z,96375.44
2023-04-12T03:55:22.420Z,96372.94
2023-04-12T03:57:26.302Z,96366.00
2023-04-12T03:59:28.983Z,96370.38
2023-04-12T04:01:31.582Z,96361.75
2023-04-12T04:03:35.021Z,96355.75
2023-04-12T04:05:37.887Z,96354.97
2023-04-12T04:07:40.441Z,96351.06
2023-04-12T04:09:43.009Z,96346.94
2023-04-12T04:11:45.594Z,96346.72
2023-04-12T04:13:49.489Z,96341.06
2023-04-12T04:15:56.722Z,96337.91
2023-04-12T04:17:59.337Z,96340.50
2023-04-12T04:20:01.907Z,96332.22
2023-04-12T04:22:04.675Z,96330.09
2023-04-12T04:24:10.002Z,96330.78
2023-04-12T04:26:13.717Z,96326.34
2023-04-12T04:28:16.923Z,96323.13
2023-04-12T04:30:22.996Z,96314.63
2023-04-12T04:32:25.579Z,96315.38
2023-04-12T04:34:28.163Z,96310.03
2023-04-12T04:36:30.908Z,96308.34
2023-04-12T04:38:33.919Z,96302.63
2023-04-12T04:40:38.288Z,96303.97
2023-04-12T04:42:42.886Z,96302.00
2023-04-12T04:44:45.484Z,96303.91
2023-04-12T04:46:49.801Z,96304.97
2023-04-12T04:48:55.130Z,96290.25
2023-04-12T04:50:57.692Z,96294.19
2023-04-12T04:53:00.222Z,96290.19
2023-04-12T04:55:05.498Z,96291.50
2023-04-12T04:57:11.606Z,96283.75
2023-04-12T04:59:14.179Z,96289.19
2023-04-12T05:01:17.533Z,96290.19
2023-04-12T05:03:21.557Z,96283.28
2023-04-12T05:05:25.905Z,96283.22
2023-04-12T05:07:28.452Z,96289.03
2023-04-12T05:09:30.972Z,96288.03
2023-04-12T05:11:33.575Z,96286.03
2023-04-12T05:13:36.150Z,96282.22
2023-04-12T05:15:41.439Z,96287.50
2023-04-12T05:17:44.050Z,96283.53
2023-04-12T05:19:47.946Z,96289.44
2023-04-12T05:21:50.493Z,96272.72
2023-04-12T05:23:53.026Z,96273.72
2023-04-12T05:25:55.682Z,96273.47
2023-04-12T05:27:58.194Z,96276.25
2023-04-12T05:30:01.087Z,96276.25
2023-04-12T05:32:03.995Z,96271.16
2023-04-12T05:34:06.549Z,96271.03
2023-04-12T05:36:11.125Z,96274.84
2023-04-12T05:38:13.667Z,96274.31
2023-04-12T05:40:16.341Z,96276.94
2023-04-12T05:42:18.873Z,96268.50
2023-04-12T05:44:21.561Z,96265.06
2023-04-12T05:46:24.200Z,96260.09
2023-04-12T05:48:26.841Z,96265.53
2023-04-12T05:50:29.376Z,96258.81
2023-04-12T05:52:33.362Z,96255.63
2023-04-12T05:54:35.933Z,96252.81
2023-04-12T05:56:38.614Z,96250.25
2023-04-12T05:58:41.138Z,96239.78
2023-04-12T06:00:44.064Z,96233.72
2023-04-12T06:02:47.638Z,96221.63
2023-04-12T06:04:51.851Z,96219.13
2023-04-12T06:06:56.161Z,96220.41
2023-04-12T06:09:00.742Z,96207.03
2023-04-12T06:11:03.295Z,96200.25
2023-04-12T06:13:05.915Z,96198.78
2023-04-12T06:15:08.977Z,96203.75
2023-04-12T06:17:11.717Z,96197.63
2023-04-12T06:19:14.270Z,96196.41
2023-04-12T06:21:16.854Z,96199.91
2023-04-12T06:23:19.637Z,96185.28
2023-04-12T06:25:24.136Z,96186.47
2023-04-12T06:27:27.392Z,96186.31
2023-04-12T06:29:29.926Z,96177.63
2023-04-12T06:31:32.618Z,96172.78
2023-04-12T06:33:36.649Z,96163.13
2023-04-12T06:35:39.230Z,96164.97
2023-04-12T06:37:41.810Z,96173.34
2023-04-12T06:39:44.340Z,96163.03
2023-04-12T06:41:50.211Z,96150.19
2023-04-12T06:43:52.752Z,96145.88
2023-04-12T06:45:56.939Z,96150.25
2023-04-12T06:47:59.512Z,96148.41
2023-04-12T06:50:03.089Z,96139.00
2023-04-12T06:52:05.840Z,96129.16
2023-04-12T06:54:08.461Z,96126.47
2023-04-12T06:56:11.052Z,96127.91
2023-04-12T06:58:14.951Z,96128.06
2023-04-12T07:00:18.011Z,96132.09
2023-04-12T07:02:20.805Z,96130.50
2023-04-12T07:04:23.653Z,96124.38
2023-04-12T07:06:26.491Z,96113.13
2023-04-12T07:08:30.232Z,96111.25
2023-04-12T07:10:32.895Z,96107.75
2023-04-12T07:12:35.664Z,96109.75
2023-04-12T07:14:39.550Z,96106.13
2023-04-12T07:16:44.122Z,96099.41
2023-04-12T07:18:49.298Z,96095.53
2023-04-12T07:20:55.423Z,96094.44
2023-04-12T07:22:57.982Z,96087.03
2023-04-12T07:25:00.569Z,96071.09
2023-04-12T07:27:04.079Z,96061.84
2023-04-12T07:29:06.753Z,96050.63
2023-04-12T07:31:11.034Z,96046.97
2023-04-12T07:33:19.720Z,96047.22
2023-04-12T07:35:23.077Z,96035.44
2023-04-12T07:37:25.644Z,96034.22
2023-04-12T07:39:29.560Z,96037.34
2023-04-12T07:41:32.170Z,96042.56
2023-04-12T07:43:34.909Z,96033.88
2023-04-12T07:45:37.924Z,96015.44
2023-04-12T07:47:41.954Z,96022.66
2023-04-12T07:49:44.578Z,96017.81
2023-04-12T07:51:47.404Z,96019.03
2023-04-12T07:53:49.960Z,96009.78
2023-04-12T07:55:52.782Z,96013.81
2023-04-12T07:57:55.321Z,96011.22
2023-04-12T07:59:57.872Z,96009.16
2023-04-12T08:02:01.047Z,96007.56
2023-04-12T08:04:05.499Z,96008.31
2023-04-12T08:06:08.933Z,96001.16
2023-04-12T08:08:12.418Z,95998.09
2023-04-12T08:10:15.331Z,96003.78
2023-04-12T08:12:17.913Z,95992.78
2023-04-12T08:14:21.122Z,95997.53
2023-04-12T08:16:23.701Z,95999.66
2023-04-12T08:18:26.544Z,96002.38
2023-04-12T08:20:31.616Z,95998.19
2023-04-12T08:22:34.165Z,95999.97
2023-04-12T08:24:36.759Z,95996.63
2023-04-12T08:26:39.365Z,95998.00
2023-04-12T08:28:41.882Z,95996.38
2023-04-12T08:30:44.684Z,95984.72
2023-04-12T08:32:47.359Z,95995.38
2023-04-12T08:34:49.947Z,95987.66
2023-04-12T08:36:53.834Z,95990.91
2023-04-12T08:38:59.612Z,95987.44
2023-04-12T08:41:05.465Z,95984.47
2023-04-12T08:43:12.123Z,95978.19
2023-04-12T08:45:18.451Z,95989.47
2023-04-12T08:47:22.161Z,95990.66
2023-04-12T08:49:25.050Z,95987.09
2023-04-12T08:51:27.955Z,95990.75
2023-04-12T08:53:32.047Z,95986.97
2023-04-12T08:55:34.639Z,95985.16
2023-04-12T08:57:40.708Z,95981.31
2023-04-12T08:59:44.634Z,95978.38
2023-04-12T09:01:47.667Z,95981.19
2023-04-12T09:03:50.614Z,95974.28
2023-04-12T09:05:53.314Z,95969.31
2023-04-12T09:07:55.870Z,95975.88
2023-04-12T09:10:00.810Z,95966.50
2023-04-12T09:12:08.543Z,95971.34
2023-04-12T09:14:22.884Z,95967.34
2023-04-12T09:16:38.964Z,95968.19
2023-04-12T09:18:49.992Z,95961.06
2023-04-12T09:21:06.793Z,95964.84
2023-04-12T09:23:20.181Z,95956.81
2023-04-12T09:25:39.089Z,95954.94
2023-04-12T09:27:48.684Z,95950.75
2023-04-12T09:29:52.164Z,95951.41
2023-04-12T09:32:01.991Z,95946.44
2023-04-12T09:34:09.407Z,95941.13
2023-04-12T09:36:14.255Z,95934.59
2023-04-12T09:38:17.238Z,95938.38
2023-04-12T09:40:25.314Z,95929.38
2023-04-12T09:42:33.807Z,95939.16
2023-04-12T09:44:37.620Z,95929.13
2023-04-12T09:46:51.915Z,95937.59
2023-04-12T09:48:58.803Z,95931.53
2023-04-12T09:51:02.265Z,95940.53
2023-04-12T09:53:06.203Z,95930.09
2023-04-12T09:55:10.644Z,95933.44
2023-04-12T09:57:13.995Z,95923.59
2023-04-12T09:59:19.299Z,95940.03
2023-04-12T10:01:23.884Z,95949.34
2023-04-12T10:03:28.130Z,95930.91
2023-04-12T10:05:31.156Z,95932.56
2023-04-12T10:07:37.440Z,95933.41
2023-04-12T10:09:41.483Z,95929.13
2023-04-12T10:11:46.379Z,95930.06
2023-04-12T10:13:50.652Z,95929.56
2023-04-12T10:15:56.233Z,95931.84
2023-04-12T10:17:58.919Z,95924.38
2023-04-12T10:20:01.865Z,95913.28
2023-04-12T10:22:04.423Z,95915.28
2023-04-12T10:24:07.862Z,95914.84
2023-04-12T10:26:10.837Z,95906.75
2023-04-12T10:28:18.580Z,95908.88
2023-04-12T10:30:23.686Z,95904.97
2023-04-12T10:32:27.647Z,95906.94
2023-04-12T10:34:31.371Z,95908.44
2023-04-12T10:36:53.462Z,95894.19
2023-04-12T10:39:12.230Z,95899.66
2023-04-12T10:41:17.528Z,95901.94
2023-04-12T10:43:27.707Z,95913.03
2023-04-12T10:45:37.996Z,95913.16
2023-04-12T10:48:01.706Z,95892.78
2023-04-12T10:50:25.649Z,95895.78
2023-04-12T10:52:28.330Z,95901.16
2023-04-12T10:54:36.204Z,95899.06
2023-04-12T10:56:40.812Z,95895.94
2023-04-12T10:58:59.406Z,95898.81
2023-04-12T11:01:11.585Z,95886.44
2023-04-12T11:03:17.950Z,95877.22
2023-04-12T11:05:21.617Z,95891.88
2023-04-12T11:07:24.689Z,95887.47
2023-04-12T11:09:28.647Z,95888.81
2023-04-12T11:11:35.684Z,95864.28
2023-04-12T11:13:39.890Z,95859.72
2023-04-12T11:15:42.615Z,95871.09
2023-04-12T11:17:55.139Z,95858.38
2023-04-12T11:20:00.799Z,95862.22
2023-04-12T11:22:05.120Z,95862.97
2023-04-12T11:24:07.904Z,95849.06
2023-04-12T11:26:10.924Z,95855.28
2023-04-12T11:28:27.881Z,95841.28
2023-04-12T11:30:31.508Z,95839.03
2023-04-12T11:32:35.236Z,95832.47
2023-04-12T11:34:38.067Z,95831.53
2023-04-12T11:36:42.411Z,95832.47
2023-04-12T11:38:46.256Z,95824.41
2023-04-12T11:40:49.324Z,95836.06
2023-04-12T11:42:52.607Z,95824.72
2023-04-12T11:45:01.584Z,95829.88
2023-04-12T11:47:07.639Z,95827.38
2023-04-12T11:49:10.660Z,95825.28
2023-04-12T11:51:24.791Z,95815.03
2023-04-12T11:53:31.873Z,95814.22
2023-04-12T11:55:34.433Z,95816.00
2023-04-12T11:57:36.980Z,95828.28
2023-04-12T11:59:39.544Z,95835.56
2023-04-12T12:01:42.473Z,95822.69
2023-04-12T12:03:45.986Z,95819.22
2023-04-12T12:05:49.573Z,95814.81
2023-04-12T12:07:54.068Z,95818.16
2023-04-12T12:09:58.689Z,95794.69
2023-04-12T12:12:01.558Z,95800.88
2023-04-12T12:14:04.542Z,95819.34
2023-04-12T12:16:08.520Z,95778.09
2023-04-12T12:18:11.096Z,95795.03
2023-04-12T12:20:21.350Z,95783.00
2023-04-12T12:22:24.019Z,95792.66
2023-04-12T12:24:27.127Z,95784.91
2023-04-12T12:26:31.210Z,95781.25
2023-04-12T12:28:37.681Z,95788.75
2023-04-12T12:30:41.121Z,95794.72
2023-04-12T12:32:44.908Z,95783.50
2023-04-12T12:34:55.095Z,95768.47
2023-04-12T12:36:57.827Z,95770.25
2023-04-12T12:39:06.792Z,95781.97
2023-04-12T12:41:17.410Z,95769.91
2023-04-12T12:43:21.621Z,95759.78
2023-04-12T12:45:25.691Z,95757.88
2023-04-12T12:47:28.393Z,95765.03
2023-04-12T12:49:30.954Z,95777.75
2023-04-12T12:51:33.608Z,95759.53
2023-04-12T12:53:36.509Z,95762.88
2023-04-12T12:55:39.286Z,95759.66
2023-04-12T12:57:43.389Z,95762.53
2023-04-12T12:59:47.263Z,95753.69
2023-04-12T13:01:49.911Z,95757.03
2023-04-12T13:03:52.657Z,95767.53
2023-04-12T13:05:55.742Z,95748.56
2023-04-12T13:07:58.307Z,95749.88
2023-04-12T13:10:02.957Z,95749.63
2023-04-12T13:12:05.609Z,95759.78
2023-04-12T13:14:08.219Z,95734.13
2023-04-12T13:16:12.360Z,95733.16
2023-04-12T13:18:16.702Z,95726.84
2023-04-12T13:20:19.410Z,95735.31
2023-04-12T13:22:22.158Z,95732.59
2023-04-12T13:24:24.712Z,95744.03
2023-04-12T13:26:27.264Z,95727.09
2023-04-12T13:28:29.792Z,95724.94
2023-04-12T13:30:32.353Z,95721.59
2023-04-12T13:32:36.513Z,95718.44
2023-04-12T13:34:41.213Z,95722.09
2023-04-12T13:36:43.804Z,95726.88
2023-04-12T13:38:46.369Z,95736.38
2023-04-12T13:40:48.927Z,95722.31
2023-04-12T13:42:51.523Z,95711.38
2023-04-12T13:44:54.046Z,95704.81
2023-04-12T13:46:56.875Z,95703.03
2023-04-12T13:49:00.876Z,95708.41
2023-04-12T13:51:04.152Z,95717.22
2023-04-12T13:53:06.964Z,95705.41
2023-04-12T13:55:10.287Z,95688.34
2023-04-12T13:57:12.853Z,95684.66
2023-04-12T13:59:15.482Z,95704.09
2023-04-12T14:01:20.436Z,95680.34
2023-04-12T14:03:23.626Z,95692.28
2023-04-12T14:05:27.676Z,95683.66
2023-04-12T14:07:30.311Z,95692.13
2023-04-12T14:09:33.796Z,95697.63
2023-04-12T14:11:47.574Z,95689.66
2023-04-12T14:13:50.141Z,95685.22
2023-04-12T14:15:52.829Z,95708.97
2023-04-12T14:17:55.804Z,95692.16
2023-04-12T14:19:58.818Z,95680.81
2023-04-12T14:22:03.813Z,95669.34
2023-04-12T14:24:06.682Z,95688.59
2023-04-12T14:26:09.295Z,95670.94
2023-04-12T14:28:17.017Z,95694.28
2023-04-12T14:30:19.567Z,95690.84
2023-04-12T14:32:24.484Z,95666.97
2023-04-12T14:34:27.041Z,95660.78
2023-04-12T14:36:29.835Z,95661.34
2023-04-12T14:38:33.771Z,95647.66
2023-04-12T14:40:36.438Z,95654.22
2023-04-12T14:42:39.310Z,95655.25
2023-04-12T14:44:41.839Z,95660.88
2023-04-12T14:46:44.434Z,95657.25
2023-04-12T14:48:47.001Z,95662.84
2023-04-12T14:50:49.551Z,95655.09
2023-04-12T14:52:52.062Z,95649.72
2023-04-12T14:54:55.994Z,95647.53
2023-04-12T14:56:58.550Z,95665.88
2023-04-12T14:59:01.256Z,95656.84
2023-04-12T15:01:03.860Z,95659.75
2023-04-12T15:03:07.310Z,95677.78
2023-04-12T15:05:10.433Z,95702.09
2023-04-12T15:07:13.074Z,95688.03
2023-04-12T15:09:17.487Z,95685.16
2023-04-12T15:11:22.213Z,95692.56
2023-04-12T15:13:31.978Z,95696.72
2023-04-12T15:15:36.180Z,95683.41
2023-04-12T15:17:38.761Z,95711.66
2023-04-12T15:19:41.330Z,95699.91
2023-04-12T15:21:44.386Z,95696.31
2023-04-12T15:23:47.423Z,95697.44
2023-04-12T15:25:50.014Z,95702.47
2023-04-12T15:27:53.881Z,95698.41
2023-04-12T15:29:56.434Z,95718.66
2023-04-12T15:31:59.072Z,95775.38
2023-04-12T15:34:01.631Z,95813.81
2023-04-12T15:36:05.146Z,95811.97
2023-04-12T15:38:08.118Z,95811.22
2023-04-12T15:40:13.645Z,95831.97
2023-04-12T15:42:16.494Z,95817.63
2023-04-12T15:44:20.448Z,95810.16
2023-04-12T15:46:23.500Z,95809.28
2023-04-12T15:48:27.551Z,95803.25
2023-04-12T15:50:30.098Z,95793.13
2023-04-12T15:52:32.843Z,95804.56
2023-04-12T15:54:43.091Z,95806.66
2023-04-12T15:56:46.371Z,95815.03
2023-04-12T15:58:48.926Z,95817.88
2023-04-12T16:00:53.866Z,95822.69
2023-04-12T16:02:57.392Z,95831.78
2023-04-12T16:05:00.589Z,95831.78
2023-04-12T16:07:04.573Z,95834.16
2023-04-12T16:09:07.164Z,95839.72
2023-04-12T16:11:12.090Z,95835.13
2023-04-12T16:13:15.343Z,95847.03
2023-04-12T16:15:19.356Z,95847.44
2023-04-12T16:17:23.315Z,95848.63
2023-04-12T16:19:26.060Z,95855.81
2023-04-12T16:21:30.209Z,95858.00
2023-04-12T16:23:34.523Z,95855.47
2023-04-12T16:25:37.057Z,95863.91
2023-04-12T16:27:39.578Z,95864.81
2023-04-12T16:29:42.540Z,95855.59
2023-04-12T16:31:45.135Z,95860.84
2023-04-12T16:33:49.260Z,95849.13
2023-04-12T16:35:51.806Z,95853.00
2023-04-12T16:37:55.457Z,95846.59
2023-04-12T16:39:58.252Z,95854.13
2023-04-12T16:42:02.802Z,95850.59
2023-04-12T16:44:05.361Z,95852.63
2023-04-12T16:46:08.232Z,95860.09
2023-04-12T16:48:11.638Z,95858.69
2023-04-12T16:50:15.729Z,95853.25
2023-04-12T16:52:18.276Z,95845.81
2023-04-12T16:54:21.700Z,95855.63
2023-04-12T16:56:24.953Z,95856.88
2023-04-12T16:58:30.468Z,95847.88
2023-04-12T17:00:33.323Z,95853.00
2023-04-12T17:02:36.030Z,95854.75
2023-04-12T17:04:38.731Z,95855.19
2023-04-12T17:06:44.143Z,95843.88
2023-04-12T17:08:47.708Z,95845.56
2023-04-12T17:10:50.830Z,95851.63
2023-04-12T17:12:54.983Z,95865.53
2023-04-12T17:14:57.785Z,95869.31
2023-04-12T17:17:00.425Z,95881.41
2023-04-12T17:19:02.960Z,95884.78
2023-04-12T17:21:06.754Z,95880.97
2023-04-12T17:23:11.168Z,95882.53
2023-04-12T17:25:14.760Z,95884.38
2023-04-12T17:27:17.344Z,95882.09
2023-04-12T17:29:20.361Z,95879.84
2023-04-12T17:31:22.954Z,95896.38
2023-04-12T17:33:25.592Z,95897.75
2023-04-12T17:35:28.465Z,95902.41
2023-04-12T17:37:31.053Z,95880.44
2023-04-12T17:39:34.948Z,95883.34
2023-04-12T17:41:37.751Z,95887.06
2023-04-12T17:43:40.385Z,95889.97
2023-04-12T17:45:43.463Z,95883.25
2023-04-12T17:47:46.091Z,95866.94
2023-04-12T17:49:48.752Z,95866.16
2023-04-12T17:51:51.289Z,95864.47
2023-04-12T17:53:55.197Z,95859.44
2023-04-12T17:55:59.118Z,95856.09
2023-04-12T17:58:01.695Z,95860.53
2023-04-12T18:00:05.493Z,95856.63
2023-04-12T18:02:08.124Z,95861.53
2023-04-12T18:04:11.585Z,95864.53
2023-04-12T18:06:14.248Z,95864.91
2023-04-12T18:08:17.002Z,95860.66
2023-04-12T18:10:21.543Z,95870.63
2023-04-12T18:12:25.660Z,95874.47
2023-04-12T18:14:28.454Z,95884.50
2023-04-12T18:16:31.898Z,95889.16
2023-04-12T18:18:34.553Z,95883.69
2023-04-12T18:20:37.454Z,95886.75
2023-04-12T18:22:40.020Z,95882.00
2023-04-12T18:24:42.653Z,95881.81
2023-04-12T18:26:45.446Z,95888.16
2023-04-12T18:28:49.394Z,95881.06
2023-04-12T18:30:51.943Z,95893.09
2023-04-12T18:32:54.586Z,95900.09
2023-04-12T18:34:57.210Z,95901.50
2023-04-12T18:37:00.168Z,95890.03
2023-04-12T18:39:02.892Z,95880.78
2023-04-12T18:41:06.623Z,95883.59
2023-04-12T18:43:09.206Z,95888.34
2023-04-12T18:45:13.333Z,95900.25
2023-04-12T18:47:15.988Z,95914.81
2023-04-12T18:49:18.518Z,95913.59
2023-04-12T18:51:22.777Z,95908.13
2023-04-12T18:53:25.373Z,95907.91
2023-04-12T18:55:27.968Z,95918.34
2023-04-12T18:57:30.519Z,95921.78
2023-04-12T18:59:33.148Z,95922.63
2023-04-12T19:01:37.359Z,95929.44
2023-04-12T19:03:39.984Z,95919.75
2023-04-12T19:05:44.115Z,95930.53
2023-04-12T19:07:47.402Z,95933.16
2023-04-12T19:09:49.952Z,95928.97
2023-04-12T19:11:55.374Z,95923.00
2023-04-12T19:13:58.143Z,95928.59
2023-04-12T19:16:01.713Z,95924.50
2023-04-12T19:18:05.988Z,95913.41
2023-04-12T19:20:10.684Z,95915.94
2023-04-12T19:22:13.231Z,95907.72
2023-04-12T19:24:16.125Z,95904.00
2023-04-12T19:26:18.674Z,95904.56
2023-04-12T19:28:21.632Z,95900.91
2023-04-12T19:30:24.361Z,95893.81
2023-04-12T19:32:27.135Z,95888.69
2023-04-12T19:34:31.294Z,95905.00
2023-04-12T19:36:34.369Z,95898.25
2023-04-12T19:38:37.340Z,95908.47
2023-04-12T19:40:39.870Z,95908.84
2023-04-12T19:42:42.758Z,95895.19
2023-04-12T19:44:45.333Z,95896.09
2023-04-12T19:46:48.263Z,95914.06
2023-04-12T19:48:51.342Z,95917.97
2023-04-12T19:50:56.562Z,95924.13
2023-04-12T19:52:59.153Z,95921.50
2023-04-12T19:55:02.369Z,95924.97
2023-04-12T19:57:05.464Z,95918.56
2023-04-12T19:59:10.838Z,95909.78
2023-04-12T20:01:16.391Z,95913.59
2023-04-12T20:03:19.069Z,95918.25
2023-04-12T20:05:22.502Z,95922.63
2023-04-12T20:07:26.376Z,95919.28
2023-04-12T20:09:28.957Z,95924.88
2023-04-12T20:11:31.610Z,95921.91
2023-04-12T20:13:34.498Z,95924.88
2023-04-12T20:15:37.324Z,95920.97
2023-04-12T20:17:41.892Z,95929.13
2023-04-12T20:19:44.445Z,95928.50
2023-04-12T20:21:47.406Z,95926.81
2023-04-12T20:23:51.681Z,95925.81
2023-04-12T20:25:55.506Z,95931.28
2023-04-12T20:27:58.649Z,95937.44
2023-04-12T20:30:01.612Z,95940.78
2023-04-12T20:32:04.248Z,95940.97
2023-04-12T20:34:07.860Z,95950.56
2023-04-12T20:36:11.291Z,95957.53
2023-04-12T20:38:14.050Z,95967.09
2023-04-12T20:40:18.811Z,95978.47
2023-04-12T20:42:22.766Z,95979.22
2023-04-12T20:44:25.436Z,95982.88
2023-04-12T20:46:28.654Z,95981.97
2023-04-12T20:48:31.503Z,95992.84
2023-04-12T20:50:34.105Z,95991.44
2023-04-12T20:52:36.725Z,96001.13
2023-04-12T20:54:39.268Z,96008.28
2023-04-12T20:56:43.341Z,95995.38
2023-04-12T20:58:47.247Z,96012.72
2023-04-12T21:00:49.784Z,96008.31
2023-04-12T21:02:52.434Z,96006.47
2023-04-12T21:04:55.893Z,96015.19
2023-04-12T21:06:59.646Z,96013.44
2023-04-12T21:09:04.232Z,96015.91
2023-04-12T21:11:07.209Z,96029.34
2023-04-12T21:13:11.854Z,96031.28
2023-04-12T21:15:17.862Z,96040.50
2023-04-12T21:17:22.270Z,96039.81
2023-04-12T21:19:25.105Z,96051.94
2023-04-12T21:21:28.473Z,96045.72
2023-04-12T21:23:31.035Z,96050.28
2023-04-12T21:25:34.447Z,96048.09
2023-04-12T21:27:37.156Z,96063.50
2023-04-12T21:29:41.933Z,96065.06
2023-04-12T21:31:44.517Z,96076.59
2023-04-12T21:33:47.177Z,96077.28
2023-04-12T21:35:49.913Z,96085.13
2023-04-12T21:37:52.731Z,96084.69
2023-04-12T21:39:55.259Z,96099.31
2023-04-12T21:41:58.379Z,96101.16
2023-04-12T21:44:00.937Z,96102.34
2023-04-12T21:46:07.630Z,96103.53
2023-04-12T21:48:10.236Z,96109.84
2023-04-12T21:50:13.095Z,96104.00
2023-04-12T21:52:15.733Z,96105.63
2023-04-12T21:54:19.776Z,96099.34
2023-04-12T21:56:22.320Z,96098.00
2023-04-12T21:58:24.864Z,96091.75
2023-04-12T22:00:28.237Z,96092.28
2023-04-12T22:02:32.379Z,96099.47
2023-04-12T22:04:35.217Z,96093.28
2023-04-12T22:06:37.777Z,96093.00
2023-04-12T22:08:43.847Z,96094.22
2023-04-12T22:10:46.500Z,96108.56
2023-04-12T22:12:50.411Z,96107.25
2023-04-12T22:14:52.988Z,96107.47
2023-04-12T22:19:25.954Z,96114.78
2023-04-12T22:21:28.796Z,96109.91
2023-04-12T22:23:31.341Z,96106.47
2023-04-12T22:25:35.156Z,96116.31
2023-04-12T22:27:40.603Z,96118.41
2023-04-12T22:29:43.603Z,96111.66
2023-04-12T22:31:46.947Z,96113.78
2023-04-12T22:33:49.526Z,96112.06
2023-04-12T22:35:53.684Z,96121.00
2023-04-12T22:37:56.674Z,96122.16
2023-04-12T22:40:02.242Z,96127.53
2023-04-12T22:42:06.271Z,96130.78
2023-04-12T22:44:09.344Z,96134.56
2023-04-12T22:46:15.868Z,96123.84
2023-04-12T22:48:20.219Z,96129.41
2023-04-12T22:50:24.594Z,96133.91
2023-04-12T22:52:30.435Z,96133.66
2023-04-12T22:54:33.943Z,96135.16
2023-04-12T22:56:41.867Z,96135.78
2023-04-12T22:58:44.383Z,96134.59
2023-04-12T23:00:49.198Z,96130.88
2023-04-12T23:02:53.648Z,96138.66
2023-04-12T23:04:56.304Z,96137.84
2023-04-12T23:07:02.345Z,96124.81
2023-04-12T23:09:06.732Z,96127.41
2023-04-12T23:11:09.415Z,96120.50
2023-04-12T23:13:12.438Z,96117.28
2023-04-12T23:15:14.970Z,96115.28
2023-04-12T23:17:19.582Z,96109.22
2023-04-12T23:19:23.068Z,96109.31
2023-04-12T23:21:25.645Z,96103.69
2023-04-12T23:23:28.347Z,96104.75
2023-04-12T23:25:39.330Z,96109.81
2023-04-12T23:27:42.454Z,96110.38
2023-04-12T23:29:44.996Z,96128.66
2023-04-12T23:31:47.573Z,96121.06
2023-04-12T23:33:50.594Z,96115.97
2023-04-12T23:35:53.457Z,96117.75
2023-04-12T23:37:56.170Z,96120.34
2023-04-12T23:40:06.100Z,96120.25
2023-04-12T23:42:12.615Z,96136.75
2023-04-12T23:44:15.382Z,96128.16
2023-04-12T23:46:18.016Z,96133.34
2023-04-12T23:48:20.663Z,96122.09
2023-04-12T23:50:23.456Z,96119.50
2023-04-12T23:52:26.022Z,96128.06
2023-04-12T23:54:28.553Z,96131.47
2023-04-12T23:56:31.485Z,96129.56
2023-04-12T23:58:35.380Z,96143.66
